首页
METAR-TAF:

METAR-TAF

机场 :

安娜堡, 密歇根州, 美国

纬度: 42-13-26N, 经度: 083-44-24W, 海拔: 255米

当前天气观测

该预报发布于43分钟前的14:53 UTC
风速3节,风向南转南东
温度 22°C
湿度 73%
气压 1015 hPa
能見度: 11.3公里
少量云层高于2100英尺
散云层高于3300英尺
阴天层高于4500英尺

METAR: KARB 181453Z 15003KT 7SM FEW021 SCT033 OVC045 22/17 A2997 RMK AO2 SLP145 T02170167 50000

时间: 11:36 (15:36 UTC)


TAF: 丢失

超过4000个机场的气象观测和天气预报(METAR&TAF报告)。

可查询的气象台以黄色和红色小点在地图上表示。

将鼠标移到小点上方,可查看气象台名称。

然后点击查看天气观测和预报。

如需切换地图:点击带黑十字的绿色按钮放大地图;点击带横线的绿色按钮缩小地图;或者点击绿色箭头查看邻近地区的地图。


METAR-TAF: